sensor_id;sensor_type;location;lat;lon;timestamp;P1;durP1;ratioP1;P2;durP2;ratioP2
11197;SDS011;5655;48.744;9.162;2023-07-08T00:00:53;11.35;;;6.35;;
11197;SDS011;5655;48.744;9.162;2023-07-08T00:03:19;11.43;;;6.30;;
11197;SDS011;5655;48.744;9.162;2023-07-08T00:05:45;9.13;;;6.22;;
11197;SDS011;5655;48.744;9.162;2023-07-08T00:08:15;9.80;;;5.80;;
11197;SDS011;5655;48.744;9.162;2023-07-08T00:10:41;11.02;;;6.18;;
11197;SDS011;5655;48.744;9.162;2023-07-08T00:13:07;8.95;;;6.18;;
11197;SDS011;5655;48.744;9.162;2023-07-08T00:15:34;8.30;;;5.88;;
11197;SDS011;5655;48.744;9.162;2023-07-08T00:18:01;9.38;;;6.35;;
11197;SDS011;5655;48.744;9.162;2023-07-08T00:20:37;7.97;;;5.65;;
11197;SDS011;5655;48.744;9.162;2023-07-08T00:23:04;11.43;;;6.90;;
11197;SDS011;5655;48.744;9.162;2023-07-08T00:25:30;9.88;;;6.15;;
11197;SDS011;5655;48.744;9.162;2023-07-08T00:27:57;7.07;;;5.45;;
11197;SDS011;5655;48.744;9.162;2023-07-08T00:30:24;10.50;;;5.88;;
11197;SDS011;5655;48.744;9.162;2023-07-08T00:32:50;8.57;;;6.13;;
11197;SDS011;5655;48.744;9.162;2023-07-08T00:35:33;9.02;;;6.15;;
11197;SDS011;5655;48.744;9.162;2023-07-08T00:38:22;8.93;;;5.90;;
11197;SDS011;5655;48.744;9.162;2023-07-08T00:40:58;8.27;;;6.25;;
11197;SDS011;5655;48.744;9.162;2023-07-08T00:43:36;10.65;;;6.20;;
11197;SDS011;5655;48.744;9.162;2023-07-08T00:46:49;11.63;;;6.68;;
11197;SDS011;5655;48.744;9.162;2023-07-08T00:51:32;9.75;;;5.80;;
11197;SDS011;5655;48.744;9.162;2023-07-08T00:54:14;9.45;;;6.35;;
11197;SDS011;5655;48.744;9.162;2023-07-08T00:56:42;9.80;;;5.88;;
11197;SDS011;5655;48.744;9.162;2023-07-08T00:59:17;10.55;;;5.97;;
11197;SDS011;5655;48.744;9.162;2023-07-08T01:01:46;8.88;;;5.97;;
11197;SDS011;5655;48.744;9.162;2023-07-08T01:04:18;8.25;;;6.25;;
11197;SDS011;5655;48.744;9.162;2023-07-08T01:06:49;8.10;;;6.38;;
11197;SDS011;5655;48.744;9.162;2023-07-08T01:09:22;8.15;;;5.93;;
11197;SDS011;5655;48.744;9.162;2023-07-08T01:11:53;9.52;;;5.65;;
11197;SDS011;5655;48.744;9.162;2023-07-08T01:14:22;10.02;;;5.90;;
11197;SDS011;5655;48.744;9.162;2023-07-08T01:16:51;8.80;;;5.97;;
11197;SDS011;5655;48.744;9.162;2023-07-08T01:19:17;12.10;;;5.85;;
11197;SDS011;5655;48.744;9.162;2023-07-08T01:21:58;9.27;;;6.35;;
11197;SDS011;5655;48.744;9.162;2023-07-08T01:24:24;9.85;;;6.22;;
11197;SDS011;5655;48.744;9.162;2023-07-08T01:26:50;9.50;;;6.43;;
11197;SDS011;5655;48.744;9.162;2023-07-08T01:29:16;8.95;;;6.00;;
11197;SDS011;5655;48.744;9.162;2023-07-08T01:31:41;9.50;;;6.47;;
11197;SDS011;5655;48.744;9.162;2023-07-08T01:34:13;8.23;;;5.53;;
11197;SDS011;5655;48.744;9.162;2023-07-08T01:36:41;8.88;;;6.00;;
11197;SDS011;5655;48.744;9.162;2023-07-08T01:39:13;8.45;;;5.93;;
11197;SDS011;5655;48.744;9.162;2023-07-08T01:41:42;8.55;;;6.05;;
11197;SDS011;5655;48.744;9.162;2023-07-08T01:46:52;8.75;;;6.38;;
11197;SDS011;5655;48.744;9.162;2023-07-08T01:49:22;9.15;;;6.20;;
11197;SDS011;5655;48.744;9.162;2023-07-08T01:51:48;9.30;;;5.57;;
11197;SDS011;5655;48.744;9.162;2023-07-08T01:54:14;10.07;;;6.25;;
11197;SDS011;5655;48.744;9.162;2023-07-08T01:56:39;10.70;;;6.38;;
11197;SDS011;5655;48.744;9.162;2023-07-08T01:59:05;9.27;;;6.03;;
11197;SDS011;5655;48.744;9.162;2023-07-08T02:01:30;10.52;;;5.50;;
11197;SDS011;5655;48.744;9.162;2023-07-08T02:03:55;8.15;;;5.47;;
11197;SDS011;5655;48.744;9.162;2023-07-08T02:06:21;10.35;;;6.32;;
11197;SDS011;5655;48.744;9.162;2023-07-08T02:08:46;8.32;;;5.47;;
11197;SDS011;5655;48.744;9.162;2023-07-08T02:11:11;9.18;;;5.93;;
11197;SDS011;5655;48.744;9.162;2023-07-08T02:13:36;8.27;;;5.85;;
11197;SDS011;5655;48.744;9.162;2023-07-08T02:16:02;10.93;;;5.95;;
11197;SDS011;5655;48.744;9.162;2023-07-08T02:18:27;8.93;;;5.82;;
11197;SDS011;5655;48.744;9.162;2023-07-08T02:20:52;7.70;;;5.20;;
11197;SDS011;5655;48.744;9.162;2023-07-08T02:23:18;9.15;;;6.30;;
11197;SDS011;5655;48.744;9.162;2023-07-08T02:25:52;10.10;;;6.22;;
11197;SDS011;5655;48.744;9.162;2023-07-08T02:28:18;8.73;;;5.57;;
11197;SDS011;5655;48.744;9.162;2023-07-08T02:30:44;9.18;;;6.20;;
11197;SDS011;5655;48.744;9.162;2023-07-08T02:33:11;7.97;;;5.90;;
11197;SDS011;5655;48.744;9.162;2023-07-08T02:35:36;9.07;;;6.00;;
11197;SDS011;5655;48.744;9.162;2023-07-08T02:38:02;7.03;;;5.20;;
11197;SDS011;5655;48.744;9.162;2023-07-08T02:40:28;10.63;;;6.70;;
11197;SDS011;5655;48.744;9.162;2023-07-08T02:42:54;7.80;;;5.72;;
11197;SDS011;5655;48.744;9.162;2023-07-08T02:45:19;10.48;;;6.20;;
11197;SDS011;5655;48.744;9.162;2023-07-08T02:47:45;10.65;;;6.30;;
11197;SDS011;5655;48.744;9.162;2023-07-08T02:50:10;9.05;;;5.40;;
11197;SDS011;5655;48.744;9.162;2023-07-08T02:52:36;9.50;;;6.18;;
11197;SDS011;5655;48.744;9.162;2023-07-08T02:55:02;8.88;;;5.88;;
11197;SDS011;5655;48.744;9.162;2023-07-08T02:57:28;7.50;;;5.07;;
11197;SDS011;5655;48.744;9.162;2023-07-08T02:59:53;8.15;;;5.80;;
11197;SDS011;5655;48.744;9.162;2023-07-08T03:02:19;9.02;;;6.00;;
11197;SDS011;5655;48.744;9.162;2023-07-08T03:04:44;7.82;;;5.30;;
11197;SDS011;5655;48.744;9.162;2023-07-08T03:07:10;9.38;;;6.05;;
11197;SDS011;5655;48.744;9.162;2023-07-08T03:09:37;8.93;;;5.55;;
11197;SDS011;5655;48.744;9.162;2023-07-08T03:12:03;8.88;;;6.30;;
11197;SDS011;5655;48.744;9.162;2023-07-08T03:14:30;8.63;;;6.18;;
11197;SDS011;5655;48.744;9.162;2023-07-08T03:16:55;11.13;;;6.40;;
11197;SDS011;5655;48.744;9.162;2023-07-08T03:19:20;7.35;;;5.80;;
11197;SDS011;5655;48.744;9.162;2023-07-08T03:21:46;8.82;;;6.00;;
11197;SDS011;5655;48.744;9.162;2023-07-08T03:24:11;10.10;;;6.47;;
11197;SDS011;5655;48.744;9.162;2023-07-08T03:26:37;12.00;;;6.57;;
11197;SDS011;5655;48.744;9.162;2023-07-08T03:29:02;9.57;;;5.78;;
11197;SDS011;5655;48.744;9.162;2023-07-08T03:31:28;8.90;;;5.90;;
11197;SDS011;5655;48.744;9.162;2023-07-08T03:33:53;8.35;;;5.95;;
11197;SDS011;5655;48.744;9.162;2023-07-08T03:36:19;8.25;;;5.38;;
11197;SDS011;5655;48.744;9.162;2023-07-08T03:38:48;11.75;;;5.60;;
11197;SDS011;5655;48.744;9.162;2023-07-08T03:41:18;9.25;;;6.32;;
11197;SDS011;5655;48.744;9.162;2023-07-08T03:43:43;10.65;;;5.25;;
11197;SDS011;5655;48.744;9.162;2023-07-08T03:46:12;7.72;;;5.45;;
11197;SDS011;5655;48.744;9.162;2023-07-08T03:48:39;10.27;;;6.60;;
11197;SDS011;5655;48.744;9.162;2023-07-08T03:51:07;9.18;;;5.97;;
11197;SDS011;5655;48.744;9.162;2023-07-08T03:53:40;9.45;;;6.28;;
11197;SDS011;5655;48.744;9.162;2023-07-08T03:56:05;8.07;;;5.82;;
11197;SDS011;5655;48.744;9.162;2023-07-08T03:58:30;9.15;;;6.30;;
11197;SDS011;5655;48.744;9.162;2023-07-08T04:00:55;10.30;;;6.28;;
11197;SDS011;5655;48.744;9.162;2023-07-08T04:03:21;8.10;;;5.80;;
11197;SDS011;5655;48.744;9.162;2023-07-08T04:05:46;9.93;;;5.88;;
11197;SDS011;5655;48.744;9.162;2023-07-08T04:08:11;8.48;;;5.97;;
11197;SDS011;5655;48.744;9.162;2023-07-08T04:10:37;9.02;;;5.57;;
11197;SDS011;5655;48.744;9.162;2023-07-08T04:13:02;11.18;;;6.07;;
11197;SDS011;5655;48.744;9.162;2023-07-08T04:15:27;8.02;;;5.70;;
11197;SDS011;5655;48.744;9.162;2023-07-08T04:17:53;8.20;;;5.93;;
11197;SDS011;5655;48.744;9.162;2023-07-08T04:20:20;9.05;;;5.95;;
11197;SDS011;5655;48.744;9.162;2023-07-08T04:22:46;8.40;;;5.90;;
11197;SDS011;5655;48.744;9.162;2023-07-08T04:25:11;8.27;;;6.13;;
11197;SDS011;5655;48.744;9.162;2023-07-08T04:27:39;9.13;;;6.13;;
11197;SDS011;5655;48.744;9.162;2023-07-08T04:30:05;10.43;;;6.65;;
11197;SDS011;5655;48.744;9.162;2023-07-08T04:32:31;10.98;;;6.40;;
11197;SDS011;5655;48.744;9.162;2023-07-08T04:34:57;7.95;;;5.80;;
11197;SDS011;5655;48.744;9.162;2023-07-08T04:37:22;8.68;;;5.80;;
11197;SDS011;5655;48.744;9.162;2023-07-08T04:39:47;9.27;;;5.88;;
11197;SDS011;5655;48.744;9.162;2023-07-08T04:42:13;9.00;;;6.03;;
11197;SDS011;5655;48.744;9.162;2023-07-08T04:44:40;10.52;;;6.22;;
11197;SDS011;5655;48.744;9.162;2023-07-08T04:47:06;8.98;;;5.80;;
11197;SDS011;5655;48.744;9.162;2023-07-08T04:49:33;8.02;;;5.47;;
11197;SDS011;5655;48.744;9.162;2023-07-08T04:51:58;7.95;;;5.72;;
11197;SDS011;5655;48.744;9.162;2023-07-08T04:54:27;9.35;;;5.97;;
11197;SDS011;5655;48.744;9.162;2023-07-08T04:56:53;9.55;;;6.22;;
11197;SDS011;5655;48.744;9.162;2023-07-08T04:59:20;11.65;;;6.45;;
11197;SDS011;5655;48.744;9.162;2023-07-08T05:01:47;8.23;;;5.53;;
11197;SDS011;5655;48.744;9.162;2023-07-08T05:04:13;10.05;;;6.07;;
11197;SDS011;5655;48.744;9.162;2023-07-08T05:06:40;13.77;;;6.47;;
11197;SDS011;5655;48.744;9.162;2023-07-08T05:09:06;10.95;;;5.80;;
11197;SDS011;5655;48.744;9.162;2023-07-08T05:11:31;9.10;;;6.25;;
11197;SDS011;5655;48.744;9.162;2023-07-08T05:13:57;11.95;;;6.47;;
11197;SDS011;5655;48.744;9.162;2023-07-08T05:16:23;8.50;;;5.93;;
11197;SDS011;5655;48.744;9.162;2023-07-08T05:18:48;10.25;;;5.70;;
11197;SDS011;5655;48.744;9.162;2023-07-08T05:21:14;8.70;;;6.00;;
11197;SDS011;5655;48.744;9.162;2023-07-08T05:23:39;8.63;;;5.80;;
11197;SDS011;5655;48.744;9.162;2023-07-08T05:26:05;8.80;;;6.28;;
11197;SDS011;5655;48.744;9.162;2023-07-08T05:28:32;13.07;;;6.70;;
11197;SDS011;5655;48.744;9.162;2023-07-08T05:30:58;12.35;;;6.22;;
11197;SDS011;5655;48.744;9.162;2023-07-08T05:33:25;8.60;;;6.05;;
11197;SDS011;5655;48.744;9.162;2023-07-08T05:35:52;13.10;;;7.22;;
11197;SDS011;5655;48.744;9.162;2023-07-08T05:38:18;10.18;;;5.43;;
11197;SDS011;5655;48.744;9.162;2023-07-08T05:41:05;9.52;;;6.32;;
11197;SDS011;5655;48.744;9.162;2023-07-08T05:43:29;9.57;;;6.60;;
11197;SDS011;5655;48.744;9.162;2023-07-08T05:45:58;9.45;;;6.50;;
11197;SDS011;5655;48.744;9.162;2023-07-08T05:48:25;8.85;;;6.38;;
11197;SDS011;5655;48.744;9.162;2023-07-08T05:50:51;8.48;;;6.00;;
11197;SDS011;5655;48.744;9.162;2023-07-08T05:53:18;12.43;;;6.85;;
11197;SDS011;5655;48.744;9.162;2023-07-08T05:55:44;11.02;;;5.90;;
11197;SDS011;5655;48.744;9.162;2023-07-08T05:58:10;10.38;;;6.38;;
11197;SDS011;5655;48.744;9.162;2023-07-08T06:00:35;10.52;;;6.18;;
11197;SDS011;5655;48.744;9.162;2023-07-08T06:03:01;9.00;;;6.30;;
11197;SDS011;5655;48.744;9.162;2023-07-08T06:05:27;8.30;;;6.05;;
11197;SDS011;5655;48.744;9.162;2023-07-08T06:07:52;8.88;;;6.18;;
11197;SDS011;5655;48.744;9.162;2023-07-08T06:10:17;9.02;;;6.63;;
11197;SDS011;5655;48.744;9.162;2023-07-08T06:12:43;9.10;;;5.63;;
11197;SDS011;5655;48.744;9.162;2023-07-08T06:15:08;9.25;;;5.97;;
11197;SDS011;5655;48.744;9.162;2023-07-08T06:17:34;9.75;;;6.18;;
11197;SDS011;5655;48.744;9.162;2023-07-08T06:19:59;9.00;;;5.90;;
11197;SDS011;5655;48.744;9.162;2023-07-08T06:22:24;8.85;;;5.85;;
11197;SDS011;5655;48.744;9.162;2023-07-08T06:24:50;11.13;;;6.63;;
11197;SDS011;5655;48.744;9.162;2023-07-08T06:27:15;10.20;;;6.25;;
11197;SDS011;5655;48.744;9.162;2023-07-08T06:29:40;8.98;;;6.15;;
11197;SDS011;5655;48.744;9.162;2023-07-08T06:32:06;12.55;;;6.00;;
11197;SDS011;5655;48.744;9.162;2023-07-08T06:34:32;9.15;;;5.30;;
11197;SDS011;5655;48.744;9.162;2023-07-08T06:36:57;6.47;;;5.15;;
11197;SDS011;5655;48.744;9.162;2023-07-08T06:39:22;8.00;;;5.50;;
11197;SDS011;5655;48.744;9.162;2023-07-08T06:41:48;11.05;;;6.35;;
11197;SDS011;5655;48.744;9.162;2023-07-08T06:44:13;9.80;;;5.95;;
11197;SDS011;5655;48.744;9.162;2023-07-08T06:46:38;10.18;;;6.22;;
11197;SDS011;5655;48.744;9.162;2023-07-08T06:49:04;12.18;;;6.28;;
11197;SDS011;5655;48.744;9.162;2023-07-08T06:51:33;10.63;;;7.38;;
11197;SDS011;5655;48.744;9.162;2023-07-08T06:53:59;6.53;;;4.90;;
11197;SDS011;5655;48.744;9.162;2023-07-08T06:56:24;8.82;;;5.45;;
11197;SDS011;5655;48.744;9.162;2023-07-08T06:58:50;7.28;;;4.95;;
11197;SDS011;5655;48.744;9.162;2023-07-08T07:01:15;7.43;;;5.03;;
11197;SDS011;5655;48.744;9.162;2023-07-08T07:03:40;9.30;;;4.97;;
11197;SDS011;5655;48.744;9.162;2023-07-08T07:06:06;7.28;;;4.82;;
11197;SDS011;5655;48.744;9.162;2023-07-08T07:08:31;5.68;;;4.18;;
11197;SDS011;5655;48.744;9.162;2023-07-08T07:10:56;10.25;;;4.32;;
11197;SDS011;5655;48.744;9.162;2023-07-08T07:13:21;6.90;;;4.15;;
11197;SDS011;5655;48.744;9.162;2023-07-08T07:15:49;10.55;;;5.32;;
11197;SDS011;5655;48.744;9.162;2023-07-08T07:18:15;9.00;;;5.03;;
11197;SDS011;5655;48.744;9.162;2023-07-08T07:20:46;6.60;;;3.92;;
11197;SDS011;5655;48.744;9.162;2023-07-08T07:23:13;6.72;;;4.32;;
11197;SDS011;5655;48.744;9.162;2023-07-08T07:25:39;6.13;;;4.03;;
11197;SDS011;5655;48.744;9.162;2023-07-08T07:28:04;8.02;;;4.25;;
11197;SDS011;5655;48.744;9.162;2023-07-08T07:30:30;7.13;;;4.00;;
11197;SDS011;5655;48.744;9.162;2023-07-08T07:32:58;8.68;;;4.00;;
11197;SDS011;5655;48.744;9.162;2023-07-08T07:35:24;7.72;;;4.40;;
11197;SDS011;5655;48.744;9.162;2023-07-08T07:37:50;5.80;;;4.40;;
11197;SDS011;5655;48.744;9.162;2023-07-08T07:40:15;5.43;;;3.75;;
11197;SDS011;5655;48.744;9.162;2023-07-08T07:42:41;7.32;;;3.45;;
11197;SDS011;5655;48.744;9.162;2023-07-08T07:45:08;6.88;;;4.22;;
11197;SDS011;5655;48.744;9.162;2023-07-08T07:47:35;6.93;;;3.80;;
11197;SDS011;5655;48.744;9.162;2023-07-08T07:50:01;6.07;;;3.10;;
11197;SDS011;5655;48.744;9.162;2023-07-08T07:52:30;5.93;;;3.95;;
11197;SDS011;5655;48.744;9.162;2023-07-08T07:54:56;4.70;;;3.63;;
11197;SDS011;5655;48.744;9.162;2023-07-08T07:57:22;6.00;;;3.67;;
11197;SDS011;5655;48.744;9.162;2023-07-08T07:59:48;6.88;;;3.80;;
11197;SDS011;5655;48.744;9.162;2023-07-08T08:02:13;5.00;;;3.47;;
11197;SDS011;5655;48.744;9.162;2023-07-08T08:04:40;4.75;;;3.70;;
11197;SDS011;5655;48.744;9.162;2023-07-08T08:07:05;4.22;;;3.17;;
11197;SDS011;5655;48.744;9.162;2023-07-08T08:09:30;6.50;;;3.45;;
11197;SDS011;5655;48.744;9.162;2023-07-08T08:11:55;5.53;;;4.13;;
11197;SDS011;5655;48.744;9.162;2023-07-08T08:14:21;5.72;;;3.60;;
11197;SDS011;5655;48.744;9.162;2023-07-08T08:16:46;7.47;;;4.07;;
11197;SDS011;5655;48.744;9.162;2023-07-08T08:19:11;6.18;;;3.83;;
11197;SDS011;5655;48.744;9.162;2023-07-08T08:21:37;4.53;;;3.55;;
11197;SDS011;5655;48.744;9.162;2023-07-08T08:24:02;4.70;;;3.20;;
11197;SDS011;5655;48.744;9.162;2023-07-08T08:26:28;4.10;;;3.10;;
11197;SDS011;5655;48.744;9.162;2023-07-08T08:28:53;5.95;;;3.42;;
11197;SDS011;5655;48.744;9.162;2023-07-08T08:31:19;6.85;;;3.22;;
11197;SDS011;5655;48.744;9.162;2023-07-08T08:33:44;6.53;;;3.00;;
11197;SDS011;5655;48.744;9.162;2023-07-08T08:36:09;5.07;;;3.47;;
11197;SDS011;5655;48.744;9.162;2023-07-08T08:38:35;6.63;;;3.20;;
11197;SDS011;5655;48.744;9.162;2023-07-08T08:41:19;5.25;;;3.42;;
11197;SDS011;5655;48.744;9.162;2023-07-08T08:43:53;6.90;;;4.30;;
11197;SDS011;5655;48.744;9.162;2023-07-08T08:46:28;6.63;;;3.47;;
11197;SDS011;5655;48.744;9.162;2023-07-08T08:52:13;6.57;;;3.50;;
11197;SDS011;5655;48.744;9.162;2023-07-08T08:54:39;7.43;;;3.58;;
11197;SDS011;5655;48.744;9.162;2023-07-08T09:02:22;6.45;;;3.40;;
11197;SDS011;5655;48.744;9.162;2023-07-08T09:04:53;6.35;;;3.38;;
11197;SDS011;5655;48.744;9.162;2023-07-08T09:07:23;4.82;;;2.97;;
11197;SDS011;5655;48.744;9.162;2023-07-08T09:10:01;8.70;;;3.13;;
11197;SDS011;5655;48.744;9.162;2023-07-08T09:12:33;3.75;;;2.65;;
11197;SDS011;5655;48.744;9.162;2023-07-08T09:14:59;4.75;;;2.47;;
11197;SDS011;5655;48.744;9.162;2023-07-08T09:17:39;6.30;;;2.90;;
11197;SDS011;5655;48.744;9.162;2023-07-08T09:20:17;4.95;;;2.78;;
11197;SDS011;5655;48.744;9.162;2023-07-08T09:28:08;9.55;;;3.15;;
11197;SDS011;5655;48.744;9.162;2023-07-08T09:30:33;6.32;;;2.78;;
11197;SDS011;5655;48.744;9.162;2023-07-08T09:33:03;4.65;;;2.35;;
11197;SDS011;5655;48.744;9.162;2023-07-08T09:35:37;4.88;;;2.72;;
11197;SDS011;5655;48.744;9.162;2023-07-08T09:38:13;4.93;;;2.35;;
11197;SDS011;5655;48.744;9.162;2023-07-08T09:40:44;5.85;;;2.28;;
11197;SDS011;5655;48.744;9.162;2023-07-08T09:43:18;4.22;;;2.65;;
11197;SDS011;5655;48.744;9.162;2023-07-08T09:45:50;5.18;;;2.60;;
11197;SDS011;5655;48.744;9.162;2023-07-08T09:48:23;5.40;;;2.97;;
11197;SDS011;5655;48.744;9.162;2023-07-08T09:50:52;4.72;;;2.45;;
11197;SDS011;5655;48.744;9.162;2023-07-08T09:53:19;4.03;;;2.40;;
11197;SDS011;5655;48.744;9.162;2023-07-08T09:55:45;4.53;;;2.45;;
11197;SDS011;5655;48.744;9.162;2023-07-08T09:58:11;4.35;;;2.38;;
11197;SDS011;5655;48.744;9.162;2023-07-08T10:00:43;5.85;;;3.00;;
11197;SDS011;5655;48.744;9.162;2023-07-08T10:03:28;5.38;;;3.40;;
11197;SDS011;5655;48.744;9.162;2023-07-08T10:05:57;8.93;;;3.58;;
11197;SDS011;5655;48.744;9.162;2023-07-08T10:08:27;5.25;;;2.70;;
11197;SDS011;5655;48.744;9.162;2023-07-08T10:10:59;5.43;;;3.00;;
11197;SDS011;5655;48.744;9.162;2023-07-08T10:13:39;4.43;;;3.33;;
11197;SDS011;5655;48.744;9.162;2023-07-08T10:16:19;9.95;;;3.50;;
11197;SDS011;5655;48.744;9.162;2023-07-08T10:18:56;6.35;;;3.22;;
11197;SDS011;5655;48.744;9.162;2023-07-08T10:36:03;5.20;;;3.35;;
11197;SDS011;5655;48.744;9.162;2023-07-08T10:44:15;6.05;;;3.10;;
11197;SDS011;5655;48.744;9.162;2023-07-08T10:55:14;4.45;;;2.80;;
11197;SDS011;5655;48.744;9.162;2023-07-08T11:06:00;3.72;;;2.83;;
11197;SDS011;5655;48.744;9.162;2023-07-08T11:08:32;4.55;;;3.15;;
11197;SDS011;5655;48.744;9.162;2023-07-08T11:11:09;5.78;;;3.20;;
11197;SDS011;5655;48.744;9.162;2023-07-08T11:13:54;5.35;;;2.50;;
11197;SDS011;5655;48.744;9.162;2023-07-08T11:16:25;7.30;;;2.75;;
11197;SDS011;5655;48.744;9.162;2023-07-08T11:19:01;4.18;;;2.83;;
11197;SDS011;5655;48.744;9.162;2023-07-08T11:21:33;4.25;;;2.80;;
11197;SDS011;5655;48.744;9.162;2023-07-08T11:24:05;2.53;;;2.25;;
11197;SDS011;5655;48.744;9.162;2023-07-08T11:26:44;6.88;;;2.72;;
11197;SDS011;5655;48.744;9.162;2023-07-08T11:29:18;5.30;;;2.95;;
11197;SDS011;5655;48.744;9.162;2023-07-08T11:31:49;6.45;;;3.00;;
11197;SDS011;5655;48.744;9.162;2023-07-08T11:34:17;4.85;;;2.88;;
11197;SDS011;5655;48.744;9.162;2023-07-08T11:36:44;7.03;;;2.83;;
11197;SDS011;5655;48.744;9.162;2023-07-08T11:42:23;3.45;;;2.78;;
11197;SDS011;5655;48.744;9.162;2023-07-08T11:45:01;4.93;;;2.88;;
11197;SDS011;5655;48.744;9.162;2023-07-08T11:47:41;5.80;;;2.58;;
11197;SDS011;5655;48.744;9.162;2023-07-08T11:50:19;4.03;;;2.70;;
11197;SDS011;5655;48.744;9.162;2023-07-08T11:53:00;9.13;;;3.00;;
11197;SDS011;5655;48.744;9.162;2023-07-08T11:58:23;5.00;;;2.60;;
11197;SDS011;5655;48.744;9.162;2023-07-08T12:03:35;5.80;;;2.30;;
11197;SDS011;5655;48.744;9.162;2023-07-08T12:06:02;4.50;;;2.70;;
11197;SDS011;5655;48.744;9.162;2023-07-08T12:08:48;4.47;;;3.00;;
11197;SDS011;5655;48.744;9.162;2023-07-08T12:11:13;4.60;;;2.35;;
11197;SDS011;5655;48.744;9.162;2023-07-08T12:13:39;5.05;;;2.65;;
11197;SDS011;5655;48.744;9.162;2023-07-08T12:16:08;3.70;;;2.60;;
11197;SDS011;5655;48.744;9.162;2023-07-08T12:18:36;5.28;;;2.58;;
11197;SDS011;5655;48.744;9.162;2023-07-08T12:21:10;4.10;;;2.42;;
11197;SDS011;5655;48.744;9.162;2023-07-08T12:23:43;4.10;;;2.33;;
11197;SDS011;5655;48.744;9.162;2023-07-08T12:26:12;4.00;;;2.65;;
11197;SDS011;5655;48.744;9.162;2023-07-08T12:28:39;4.97;;;3.20;;
11197;SDS011;5655;48.744;9.162;2023-07-08T12:33:47;3.20;;;2.30;;
11197;SDS011;5655;48.744;9.162;2023-07-08T12:36:15;6.85;;;2.65;;
11197;SDS011;5655;48.744;9.162;2023-07-08T12:38:44;5.68;;;2.78;;
11197;SDS011;5655;48.744;9.162;2023-07-08T12:43:40;4.63;;;2.28;;
11197;SDS011;5655;48.744;9.162;2023-07-08T12:46:06;3.88;;;2.30;;
11197;SDS011;5655;48.744;9.162;2023-07-08T12:48:34;3.72;;;2.83;;
11197;SDS011;5655;48.744;9.162;2023-07-08T12:51:00;5.55;;;2.58;;
11197;SDS011;5655;48.744;9.162;2023-07-08T12:53:25;4.93;;;2.30;;
11197;SDS011;5655;48.744;9.162;2023-07-08T12:55:51;3.38;;;2.17;;
11197;SDS011;5655;48.744;9.162;2023-07-08T12:58:24;4.50;;;2.45;;
11197;SDS011;5655;48.744;9.162;2023-07-08T13:00:53;3.55;;;2.05;;
11197;SDS011;5655;48.744;9.162;2023-07-08T13:03:21;3.65;;;2.20;;
11197;SDS011;5655;48.744;9.162;2023-07-08T13:05:49;5.13;;;2.35;;
11197;SDS011;5655;48.744;9.162;2023-07-08T13:08:18;3.42;;;2.55;;
11197;SDS011;5655;48.744;9.162;2023-07-08T13:10:47;5.45;;;2.53;;
11197;SDS011;5655;48.744;9.162;2023-07-08T13:13:20;4.55;;;2.75;;
11197;SDS011;5655;48.744;9.162;2023-07-08T13:15:48;3.70;;;2.10;;
11197;SDS011;5655;48.744;9.162;2023-07-08T13:20:41;4.50;;;2.40;;
11197;SDS011;5655;48.744;9.162;2023-07-08T13:23:08;4.43;;;2.35;;
11197;SDS011;5655;48.744;9.162;2023-07-08T13:25:36;3.03;;;2.20;;
11197;SDS011;5655;48.744;9.162;2023-07-08T13:28:25;5.32;;;2.50;;
11197;SDS011;5655;48.744;9.162;2023-07-08T13:31:01;4.72;;;2.03;;
11197;SDS011;5655;48.744;9.162;2023-07-08T13:33:37;2.95;;;2.03;;
11197;SDS011;5655;48.744;9.162;2023-07-08T13:36:04;5.78;;;2.40;;
11197;SDS011;5655;48.744;9.162;2023-07-08T13:38:34;3.75;;;2.22;;
11197;SDS011;5655;48.744;9.162;2023-07-08T13:41:04;4.18;;;2.13;;
11197;SDS011;5655;48.744;9.162;2023-07-08T13:43:32;3.10;;;2.03;;
11197;SDS011;5655;48.744;9.162;2023-07-08T13:46:00;2.58;;;1.90;;
11197;SDS011;5655;48.744;9.162;2023-07-08T13:48:27;4.38;;;2.05;;
11197;SDS011;5655;48.744;9.162;2023-07-08T13:56:12;4.35;;;2.33;;
11197;SDS011;5655;48.744;9.162;2023-07-08T13:58:47;5.53;;;2.30;;
11197;SDS011;5655;48.744;9.162;2023-07-08T14:01:17;3.03;;;1.77;;
11197;SDS011;5655;48.744;9.162;2023-07-08T14:03:44;3.70;;;1.90;;
11197;SDS011;5655;48.744;9.162;2023-07-08T14:06:14;2.22;;;1.90;;
11197;SDS011;5655;48.744;9.162;2023-07-08T14:08:40;2.95;;;1.60;;
11197;SDS011;5655;48.744;9.162;2023-07-08T14:11:06;3.35;;;1.80;;
11197;SDS011;5655;48.744;9.162;2023-07-08T14:13:31;3.55;;;2.15;;
11197;SDS011;5655;48.744;9.162;2023-07-08T14:15:56;2.28;;;1.77;;
11197;SDS011;5655;48.744;9.162;2023-07-08T14:18:22;2.65;;;1.95;;
11197;SDS011;5655;48.744;9.162;2023-07-08T14:20:48;3.22;;;2.22;;
11197;SDS011;5655;48.744;9.162;2023-07-08T14:23:13;4.93;;;2.20;;
11197;SDS011;5655;48.744;9.162;2023-07-08T14:25:39;2.83;;;1.90;;
11197;SDS011;5655;48.744;9.162;2023-07-08T14:28:04;4.03;;;2.10;;
11197;SDS011;5655;48.744;9.162;2023-07-08T14:30:31;3.70;;;2.40;;
11197;SDS011;5655;48.744;9.162;2023-07-08T14:32:57;8.00;;;2.35;;
11197;SDS011;5655;48.744;9.162;2023-07-08T14:35:24;5.07;;;2.20;;
11197;SDS011;5655;48.744;9.162;2023-07-08T14:37:53;3.53;;;2.13;;
11197;SDS011;5655;48.744;9.162;2023-07-08T14:42:56;5.07;;;2.38;;
11197;SDS011;5655;48.744;9.162;2023-07-08T14:45:24;4.80;;;2.00;;
11197;SDS011;5655;48.744;9.162;2023-07-08T14:47:50;3.17;;;1.92;;
11197;SDS011;5655;48.744;9.162;2023-07-08T14:50:15;3.55;;;1.95;;
11197;SDS011;5655;48.744;9.162;2023-07-08T14:52:41;5.95;;;2.35;;
11197;SDS011;5655;48.744;9.162;2023-07-08T14:55:07;5.07;;;2.10;;
11197;SDS011;5655;48.744;9.162;2023-07-08T14:57:38;5.82;;;2.00;;
11197;SDS011;5655;48.744;9.162;2023-07-08T15:00:10;4.13;;;2.60;;
11197;SDS011;5655;48.744;9.162;2023-07-08T15:02:39;2.92;;;2.20;;
11197;SDS011;5655;48.744;9.162;2023-07-08T15:05:09;2.80;;;1.83;;
11197;SDS011;5655;48.744;9.162;2023-07-08T15:07:38;2.40;;;1.92;;
11197;SDS011;5655;48.744;9.162;2023-07-08T15:10:05;4.63;;;2.30;;
11197;SDS011;5655;48.744;9.162;2023-07-08T15:12:31;4.22;;;2.15;;
11197;SDS011;5655;48.744;9.162;2023-07-08T15:14:57;3.38;;;2.05;;
11197;SDS011;5655;48.744;9.162;2023-07-08T15:17:22;3.38;;;2.20;;
11197;SDS011;5655;48.744;9.162;2023-07-08T15:19:48;4.72;;;2.10;;
11197;SDS011;5655;48.744;9.162;2023-07-08T15:22:13;4.93;;;2.42;;
11197;SDS011;5655;48.744;9.162;2023-07-08T15:24:38;3.42;;;2.53;;
11197;SDS011;5655;48.744;9.162;2023-07-08T15:27:04;3.83;;;2.30;;
11197;SDS011;5655;48.744;9.162;2023-07-08T15:29:29;4.15;;;2.10;;
11197;SDS011;5655;48.744;9.162;2023-07-08T15:31:55;2.28;;;1.95;;
11197;SDS011;5655;48.744;9.162;2023-07-08T15:34:21;2.92;;;2.05;;
11197;SDS011;5655;48.744;9.162;2023-07-08T15:36:47;3.80;;;2.45;;
11197;SDS011;5655;48.744;9.162;2023-07-08T15:39:13;3.55;;;2.08;;
11197;SDS011;5655;48.744;9.162;2023-07-08T15:41:39;5.10;;;2.60;;
11197;SDS011;5655;48.744;9.162;2023-07-08T15:44:09;5.90;;;2.25;;
11197;SDS011;5655;48.744;9.162;2023-07-08T15:46:45;4.88;;;1.90;;
11197;SDS011;5655;48.744;9.162;2023-07-08T15:51:43;5.55;;;2.25;;
11197;SDS011;5655;48.744;9.162;2023-07-08T15:54:10;4.82;;;2.20;;
11197;SDS011;5655;48.744;9.162;2023-07-08T15:56:36;3.05;;;2.30;;
11197;SDS011;5655;48.744;9.162;2023-07-08T15:59:01;4.20;;;2.20;;
11197;SDS011;5655;48.744;9.162;2023-07-08T16:01:26;6.20;;;2.00;;
11197;SDS011;5655;48.744;9.162;2023-07-08T16:03:53;4.07;;;2.15;;
11197;SDS011;5655;48.744;9.162;2023-07-08T16:06:18;3.10;;;2.08;;
11197;SDS011;5655;48.744;9.162;2023-07-08T16:08:44;3.47;;;2.20;;
11197;SDS011;5655;48.744;9.162;2023-07-08T16:11:18;5.30;;;2.42;;
11197;SDS011;5655;48.744;9.162;2023-07-08T16:13:49;5.75;;;2.38;;
11197;SDS011;5655;48.744;9.162;2023-07-08T16:16:15;3.95;;;2.30;;
11197;SDS011;5655;48.744;9.162;2023-07-08T16:18:40;3.55;;;1.73;;
11197;SDS011;5655;48.744;9.162;2023-07-08T16:21:06;4.10;;;2.22;;
11197;SDS011;5655;48.744;9.162;2023-07-08T16:23:32;3.25;;;2.10;;
11197;SDS011;5655;48.744;9.162;2023-07-08T16:25:58;6.18;;;2.33;;
11197;SDS011;5655;48.744;9.162;2023-07-08T16:30:49;4.63;;;1.90;;